sensor_id;sensor_type;location;lat;lon;timestamp;temperature;humidity
516;DHT22;244;48.508;9.052;2024-02-26T00:00:19;7.90;8.90
516;DHT22;244;48.508;9.052;2024-02-26T00:02:46;7.90;8.90
516;DHT22;244;48.508;9.052;2024-02-26T00:05:13;7.90;8.90
516;DHT22;244;48.508;9.052;2024-02-26T00:07:40;8.00;8.90
516;DHT22;244;48.508;9.052;2024-02-26T00:10:07;8.00;8.80
516;DHT22;244;48.508;9.052;2024-02-26T00:12:35;8.10;8.80
516;DHT22;244;48.508;9.052;2024-02-26T00:15:03;8.10;8.80
516;DHT22;244;48.508;9.052;2024-02-26T00:17:30;8.10;8.80
516;DHT22;244;48.508;9.052;2024-02-26T00:19:57;8.20;8.80
516;DHT22;244;48.508;9.052;2024-02-26T00:22:24;8.20;8.80
516;DHT22;244;48.508;9.052;2024-02-26T00:24:51;8.20;8.70
516;DHT22;244;48.508;9.052;2024-02-26T00:27:18;8.20;8.70
516;DHT22;244;48.508;9.052;2024-02-26T00:29:45;8.30;8.70
516;DHT22;244;48.508;9.052;2024-02-26T00:32:13;8.30;8.70
516;DHT22;244;48.508;9.052;2024-02-26T00:34:41;8.30;8.80
516;DHT22;244;48.508;9.052;2024-02-26T00:37:07;8.30;8.80
516;DHT22;244;48.508;9.052;2024-02-26T00:39:34;8.30;8.70
516;DHT22;244;48.508;9.052;2024-02-26T00:42:01;8.30;8.70
516;DHT22;244;48.508;9.052;2024-02-26T00:44:28;8.30;8.70
516;DHT22;244;48.508;9.052;2024-02-26T00:46:55;8.30;8.70
516;DHT22;244;48.508;9.052;2024-02-26T00:49:23;8.30;8.70
516;DHT22;244;48.508;9.052;2024-02-26T00:51:50;8.30;8.70
516;DHT22;244;48.508;9.052;2024-02-26T00:54:17;8.30;8.70
516;DHT22;244;48.508;9.052;2024-02-26T00:56:44;8.30;8.80
516;DHT22;244;48.508;9.052;2024-02-26T00:59:10;8.30;8.70
516;DHT22;244;48.508;9.052;2024-02-26T01:01:37;8.30;8.70
516;DHT22;244;48.508;9.052;2024-02-26T01:04:04;8.30;8.80
516;DHT22;244;48.508;9.052;2024-02-26T01:06:32;8.30;8.80
516;DHT22;244;48.508;9.052;2024-02-26T01:08:59;8.30;9.40
516;DHT22;244;48.508;9.052;2024-02-26T01:11:26;8.30;8.80
516;DHT22;244;48.508;9.052;2024-02-26T01:13:53;8.40;8.90
516;DHT22;244;48.508;9.052;2024-02-26T01:16:22;8.30;8.80
516;DHT22;244;48.508;9.052;2024-02-26T01:18:49;8.30;8.80
516;DHT22;244;48.508;9.052;2024-02-26T01:21:16;8.30;8.80
516;DHT22;244;48.508;9.052;2024-02-26T01:23:44;8.30;8.90
516;DHT22;244;48.508;9.052;2024-02-26T01:26:11;8.30;9.00
516;DHT22;244;48.508;9.052;2024-02-26T01:28:37;8.30;9.00
516;DHT22;244;48.508;9.052;2024-02-26T01:31:04;8.20;9.10
516;DHT22;244;48.508;9.052;2024-02-26T01:33:34;8.20;9.10
516;DHT22;244;48.508;9.052;2024-02-26T01:36:00;8.20;9.10
516;DHT22;244;48.508;9.052;2024-02-26T01:38:28;8.20;9.90
516;DHT22;244;48.508;9.052;2024-02-26T01:40:56;8.20;9.30
516;DHT22;244;48.508;9.052;2024-02-26T01:43:23;8.10;9.60
516;DHT22;244;48.508;9.052;2024-02-26T01:45:50;8.10;9.70
516;DHT22;244;48.508;9.052;2024-02-26T01:48:17;8.00;9.90
516;DHT22;244;48.508;9.052;2024-02-26T01:50:43;7.90;9.80
516;DHT22;244;48.508;9.052;2024-02-26T01:53:10;7.90;10.00
516;DHT22;244;48.508;9.052;2024-02-26T01:55:37;7.90;10.20
516;DHT22;244;48.508;9.052;2024-02-26T01:58:06;7.90;10.30
516;DHT22;244;48.508;9.052;2024-02-26T02:00:33;7.90;10.40
516;DHT22;244;48.508;9.052;2024-02-26T02:03:00;7.90;10.40
516;DHT22;244;48.508;9.052;2024-02-26T02:05:29;8.00;10.50
516;DHT22;244;48.508;9.052;2024-02-26T02:07:56;8.00;10.50
516;DHT22;244;48.508;9.052;2024-02-26T02:10:24;8.00;11.10
516;DHT22;244;48.508;9.052;2024-02-26T02:12:53;8.00;10.50
516;DHT22;244;48.508;9.052;2024-02-26T02:15:21;8.10;10.50
516;DHT22;244;48.508;9.052;2024-02-26T02:17:48;8.10;10.50
516;DHT22;244;48.508;9.052;2024-02-26T02:20:16;8.10;10.50
516;DHT22;244;48.508;9.052;2024-02-26T02:22:45;8.10;10.40
516;DHT22;244;48.508;9.052;2024-02-26T02:25:13;8.20;10.50
516;DHT22;244;48.508;9.052;2024-02-26T02:27:40;8.20;10.40
516;DHT22;244;48.508;9.052;2024-02-26T02:30:08;8.20;10.50
516;DHT22;244;48.508;9.052;2024-02-26T02:32:37;8.20;10.40
516;DHT22;244;48.508;9.052;2024-02-26T02:35:04;8.30;10.50
516;DHT22;244;48.508;9.052;2024-02-26T02:37:32;8.30;10.50
516;DHT22;244;48.508;9.052;2024-02-26T02:40:00;8.30;10.50
516;DHT22;244;48.508;9.052;2024-02-26T02:42:27;8.30;10.50
516;DHT22;244;48.508;9.052;2024-02-26T02:44:54;8.30;10.50
516;DHT22;244;48.508;9.052;2024-02-26T02:47:21;8.30;10.50
516;DHT22;244;48.508;9.052;2024-02-26T02:49:48;8.30;10.50
516;DHT22;244;48.508;9.052;2024-02-26T02:52:15;8.30;10.50
516;DHT22;244;48.508;9.052;2024-02-26T02:54:41;8.30;10.50
516;DHT22;244;48.508;9.052;2024-02-26T02:57:10;8.30;10.50
516;DHT22;244;48.508;9.052;2024-02-26T02:59:37;8.30;10.50
516;DHT22;244;48.508;9.052;2024-02-26T03:02:04;8.30;10.50
516;DHT22;244;48.508;9.052;2024-02-26T03:04:32;8.20;10.60
516;DHT22;244;48.508;9.052;2024-02-26T03:06:58;8.20;10.70
516;DHT22;244;48.508;9.052;2024-02-26T03:09:25;8.20;10.80
516;DHT22;244;48.508;9.052;2024-02-26T03:11:52;8.20;10.80
516;DHT22;244;48.508;9.052;2024-02-26T03:14:20;8.20;10.90
516;DHT22;244;48.508;9.052;2024-02-26T03:16:48;8.20;10.90
516;DHT22;244;48.508;9.052;2024-02-26T03:19:15;8.20;11.00
516;DHT22;244;48.508;9.052;2024-02-26T03:21:42;8.20;11.00
516;DHT22;244;48.508;9.052;2024-02-26T03:24:09;8.20;11.00
516;DHT22;244;48.508;9.052;2024-02-26T03:26:37;8.20;11.10
516;DHT22;244;48.508;9.052;2024-02-26T03:29:04;8.20;11.10
516;DHT22;244;48.508;9.052;2024-02-26T03:31:33;8.30;11.20
516;DHT22;244;48.508;9.052;2024-02-26T03:33:59;8.30;11.20
516;DHT22;244;48.508;9.052;2024-02-26T03:36:26;8.30;11.80
516;DHT22;244;48.508;9.052;2024-02-26T03:38:53;8.40;11.20
516;DHT22;244;48.508;9.052;2024-02-26T03:41:20;8.40;11.30
516;DHT22;244;48.508;9.052;2024-02-26T03:43:47;8.40;11.20
516;DHT22;244;48.508;9.052;2024-02-26T03:46:14;8.40;11.30
516;DHT22;244;48.508;9.052;2024-02-26T03:48:42;8.40;11.30
516;DHT22;244;48.508;9.052;2024-02-26T03:51:09;8.40;11.30
516;DHT22;244;48.508;9.052;2024-02-26T03:53:36;8.40;11.30
516;DHT22;244;48.508;9.052;2024-02-26T03:56:04;8.40;11.30
516;DHT22;244;48.508;9.052;2024-02-26T03:58:31;8.40;11.30
516;DHT22;244;48.508;9.052;2024-02-26T04:00:59;8.40;11.30
516;DHT22;244;48.508;9.052;2024-02-26T04:03:25;8.40;11.30
516;DHT22;244;48.508;9.052;2024-02-26T04:05:54;8.50;11.30
516;DHT22;244;48.508;9.052;2024-02-26T04:08:21;8.50;11.30
516;DHT22;244;48.508;9.052;2024-02-26T04:10:48;8.50;11.40
516;DHT22;244;48.508;9.052;2024-02-26T04:13:14;8.40;11.50
516;DHT22;244;48.508;9.052;2024-02-26T04:15:41;8.30;11.60
516;DHT22;244;48.508;9.052;2024-02-26T04:18:08;8.20;12.40
516;DHT22;244;48.508;9.052;2024-02-26T04:20:35;8.20;11.90
516;DHT22;244;48.508;9.052;2024-02-26T04:23:04;8.10;11.90
516;DHT22;244;48.508;9.052;2024-02-26T04:25:31;8.10;12.00
516;DHT22;244;48.508;9.052;2024-02-26T04:27:58;8.10;12.10
516;DHT22;244;48.508;9.052;2024-02-26T04:30:24;8.10;12.10
516;DHT22;244;48.508;9.052;2024-02-26T04:32:51;8.10;12.30
516;DHT22;244;48.508;9.052;2024-02-26T04:35:18;8.10;12.40
516;DHT22;244;48.508;9.052;2024-02-26T04:37:45;8.10;12.50
516;DHT22;244;48.508;9.052;2024-02-26T04:40:14;8.10;12.60
516;DHT22;244;48.508;9.052;2024-02-26T04:42:41;8.10;12.60
516;DHT22;244;48.508;9.052;2024-02-26T04:45:08;8.10;12.60
516;DHT22;244;48.508;9.052;2024-02-26T04:47:35;8.10;12.70
516;DHT22;244;48.508;9.052;2024-02-26T04:50:02;8.20;12.70
516;DHT22;244;48.508;9.052;2024-02-26T04:52:29;8.20;12.70
516;DHT22;244;48.508;9.052;2024-02-26T04:54:56;8.20;12.70
516;DHT22;244;48.508;9.052;2024-02-26T04:57:26;8.30;12.70
516;DHT22;244;48.508;9.052;2024-02-26T04:59:53;8.30;12.70
516;DHT22;244;48.508;9.052;2024-02-26T05:02:20;8.30;12.60
516;DHT22;244;48.508;9.052;2024-02-26T05:04:47;8.30;12.60
516;DHT22;244;48.508;9.052;2024-02-26T05:07:14;8.30;12.50
516;DHT22;244;48.508;9.052;2024-02-26T05:09:43;8.40;12.60
516;DHT22;244;48.508;9.052;2024-02-26T05:12:10;8.40;12.60
516;DHT22;244;48.508;9.052;2024-02-26T05:14:38;8.40;12.70
516;DHT22;244;48.508;9.052;2024-02-26T05:17:05;8.40;12.60
516;DHT22;244;48.508;9.052;2024-02-26T05:19:32;8.40;12.50
516;DHT22;244;48.508;9.052;2024-02-26T05:21:59;8.40;12.60
516;DHT22;244;48.508;9.052;2024-02-26T05:24:26;8.30;12.70
516;DHT22;244;48.508;9.052;2024-02-26T05:26:54;8.20;13.00
516;DHT22;244;48.508;9.052;2024-02-26T05:29:21;8.10;13.10
516;DHT22;244;48.508;9.052;2024-02-26T05:31:49;8.00;13.20
516;DHT22;244;48.508;9.052;2024-02-26T05:34:16;7.90;13.40
516;DHT22;244;48.508;9.052;2024-02-26T05:36:43;7.90;13.50
516;DHT22;244;48.508;9.052;2024-02-26T05:39:10;7.90;13.60
516;DHT22;244;48.508;9.052;2024-02-26T05:41:37;7.90;13.70
516;DHT22;244;48.508;9.052;2024-02-26T05:44:04;7.80;13.70
516;DHT22;244;48.508;9.052;2024-02-26T05:46:31;7.80;13.90
516;DHT22;244;48.508;9.052;2024-02-26T05:48:59;7.70;14.00
516;DHT22;244;48.508;9.052;2024-02-26T05:51:26;7.60;14.10
516;DHT22;244;48.508;9.052;2024-02-26T05:53:53;7.60;14.10
516;DHT22;244;48.508;9.052;2024-02-26T05:56:20;7.50;14.10
516;DHT22;244;48.508;9.052;2024-02-26T05:58:47;7.50;14.00
516;DHT22;244;48.508;9.052;2024-02-26T06:01:15;7.60;14.10
516;DHT22;244;48.508;9.052;2024-02-26T06:03:43;7.60;14.10
516;DHT22;244;48.508;9.052;2024-02-26T06:06:11;7.60;14.20
516;DHT22;244;48.508;9.052;2024-02-26T06:08:38;7.70;14.10
516;DHT22;244;48.508;9.052;2024-02-26T06:11:06;7.70;14.10
516;DHT22;244;48.508;9.052;2024-02-26T06:13:33;7.70;14.10
516;DHT22;244;48.508;9.052;2024-02-26T06:16:00;7.70;14.10
516;DHT22;244;48.508;9.052;2024-02-26T06:18:27;7.70;14.10
516;DHT22;244;48.508;9.052;2024-02-26T06:20:54;7.70;14.10
516;DHT22;244;48.508;9.052;2024-02-26T06:23:23;7.70;14.20
516;DHT22;244;48.508;9.052;2024-02-26T06:25:49;7.70;14.10
516;DHT22;244;48.508;9.052;2024-02-26T06:28:16;7.70;14.20
516;DHT22;244;48.508;9.052;2024-02-26T06:30:43;7.60;14.10
516;DHT22;244;48.508;9.052;2024-02-26T06:33:11;7.60;14.10
516;DHT22;244;48.508;9.052;2024-02-26T06:35:39;7.60;14.20
516;DHT22;244;48.508;9.052;2024-02-26T06:38:07;7.70;14.30
516;DHT22;244;48.508;9.052;2024-02-26T06:40:36;7.70;14.40
516;DHT22;244;48.508;9.052;2024-02-26T06:43:03;7.70;14.40
516;DHT22;244;48.508;9.052;2024-02-26T06:45:30;7.80;14.40
516;DHT22;244;48.508;9.052;2024-02-26T06:47:57;7.80;14.40
516;DHT22;244;48.508;9.052;2024-02-26T06:50:24;7.90;14.40
516;DHT22;244;48.508;9.052;2024-02-26T06:52:51;8.00;14.40
516;DHT22;244;48.508;9.052;2024-02-26T06:55:18;8.10;14.40
516;DHT22;244;48.508;9.052;2024-02-26T06:57:46;8.20;14.50
516;DHT22;244;48.508;9.052;2024-02-26T07:00:14;8.30;14.50
516;DHT22;244;48.508;9.052;2024-02-26T07:02:42;8.40;14.60
516;DHT22;244;48.508;9.052;2024-02-26T07:05:09;8.40;14.60
516;DHT22;244;48.508;9.052;2024-02-26T07:07:36;8.50;14.60
516;DHT22;244;48.508;9.052;2024-02-26T07:10:03;8.50;14.60
516;DHT22;244;48.508;9.052;2024-02-26T07:12:31;8.50;14.60
516;DHT22;244;48.508;9.052;2024-02-26T07:14:59;8.60;14.70
516;DHT22;244;48.508;9.052;2024-02-26T07:17:26;8.60;14.70
516;DHT22;244;48.508;9.052;2024-02-26T07:19:53;8.70;14.60
516;DHT22;244;48.508;9.052;2024-02-26T07:22:20;8.80;14.60
516;DHT22;244;48.508;9.052;2024-02-26T07:24:46;8.90;14.50
516;DHT22;244;48.508;9.052;2024-02-26T07:27:13;8.90;14.40
516;DHT22;244;48.508;9.052;2024-02-26T07:29:43;9.00;14.50
516;DHT22;244;48.508;9.052;2024-02-26T07:32:11;9.00;14.50
516;DHT22;244;48.508;9.052;2024-02-26T07:34:38;9.10;14.50
516;DHT22;244;48.508;9.052;2024-02-26T07:37:07;9.20;14.40
516;DHT22;244;48.508;9.052;2024-02-26T07:39:34;9.30;14.30
516;DHT22;244;48.508;9.052;2024-02-26T07:42:02;9.30;14.30
516;DHT22;244;48.508;9.052;2024-02-26T07:44:29;9.40;14.20
516;DHT22;244;48.508;9.052;2024-02-26T07:46:56;9.50;14.20
516;DHT22;244;48.508;9.052;2024-02-26T07:49:24;9.60;14.20
516;DHT22;244;48.508;9.052;2024-02-26T07:51:51;9.70;14.20
516;DHT22;244;48.508;9.052;2024-02-26T07:54:18;9.80;14.00
516;DHT22;244;48.508;9.052;2024-02-26T07:56:45;9.90;14.60
516;DHT22;244;48.508;9.052;2024-02-26T07:59:12;10.00;13.20
516;DHT22;244;48.508;9.052;2024-02-26T08:01:39;10.00;13.80
516;DHT22;244;48.508;9.052;2024-02-26T08:04:07;10.00;13.10
516;DHT22;244;48.508;9.052;2024-02-26T08:06:35;10.00;13.20
516;DHT22;244;48.508;9.052;2024-02-26T08:09:02;10.00;13.20
516;DHT22;244;48.508;9.052;2024-02-26T08:11:29;10.00;13.30
516;DHT22;244;48.508;9.052;2024-02-26T08:13:56;10.00;13.30
516;DHT22;244;48.508;9.052;2024-02-26T08:16:24;10.10;13.40
516;DHT22;244;48.508;9.052;2024-02-26T08:18:51;10.00;13.30
516;DHT22;244;48.508;9.052;2024-02-26T08:21:18;10.10;13.30
516;DHT22;244;48.508;9.052;2024-02-26T08:23:46;10.10;13.20
516;DHT22;244;48.508;9.052;2024-02-26T08:26:13;10.10;13.20
516;DHT22;244;48.508;9.052;2024-02-26T08:28:40;10.10;13.20
516;DHT22;244;48.508;9.052;2024-02-26T08:31:07;10.10;13.80
516;DHT22;244;48.508;9.052;2024-02-26T08:33:34;10.20;13.20
516;DHT22;244;48.508;9.052;2024-02-26T08:36:04;10.30;13.20
516;DHT22;244;48.508;9.052;2024-02-26T08:38:31;10.40;12.90
516;DHT22;244;48.508;9.052;2024-02-26T08:41:01;10.60;12.80
516;DHT22;244;48.508;9.052;2024-02-26T08:43:28;10.60;12.60
516;DHT22;244;48.508;9.052;2024-02-26T08:45:56;10.70;12.50
516;DHT22;244;48.508;9.052;2024-02-26T08:48:23;10.70;12.40
516;DHT22;244;48.508;9.052;2024-02-26T08:50:50;10.70;12.40
516;DHT22;244;48.508;9.052;2024-02-26T08:53:17;10.70;12.40
516;DHT22;244;48.508;9.052;2024-02-26T08:55:44;10.70;12.00
516;DHT22;244;48.508;9.052;2024-02-26T08:58:12;10.70;11.80
516;DHT22;244;48.508;9.052;2024-02-26T09:00:39;10.70;11.80
516;DHT22;244;48.508;9.052;2024-02-26T09:03:06;10.80;11.80
516;DHT22;244;48.508;9.052;2024-02-26T09:05:33;10.90;11.90
516;DHT22;244;48.508;9.052;2024-02-26T09:08:00;11.00;11.80
516;DHT22;244;48.508;9.052;2024-02-26T09:10:27;11.10;11.60
516;DHT22;244;48.508;9.052;2024-02-26T09:12:54;11.30;11.50
516;DHT22;244;48.508;9.052;2024-02-26T09:15:22;11.40;11.40
516;DHT22;244;48.508;9.052;2024-02-26T09:17:49;11.60;11.40
516;DHT22;244;48.508;9.052;2024-02-26T09:20:17;11.70;11.30
516;DHT22;244;48.508;9.052;2024-02-26T09:22:45;11.90;11.20
516;DHT22;244;48.508;9.052;2024-02-26T09:25:12;12.00;11.00
516;DHT22;244;48.508;9.052;2024-02-26T09:27:41;12.10;10.60
516;DHT22;244;48.508;9.052;2024-02-26T09:30:08;12.20;10.30
516;DHT22;244;48.508;9.052;2024-02-26T09:32:37;12.30;9.90
516;DHT22;244;48.508;9.052;2024-02-26T09:35:05;12.50;9.80
516;DHT22;244;48.508;9.052;2024-02-26T09:37:32;12.80;9.70
516;DHT22;244;48.508;9.052;2024-02-26T09:39:59;13.00;10.30
516;DHT22;244;48.508;9.052;2024-02-26T09:42:26;13.10;9.20
516;DHT22;244;48.508;9.052;2024-02-26T09:44:54;13.30;8.60
516;DHT22;244;48.508;9.052;2024-02-26T09:47:23;13.40;8.60
516;DHT22;244;48.508;9.052;2024-02-26T09:49:52;13.60;8.40
516;DHT22;244;48.508;9.052;2024-02-26T09:52:19;13.80;8.10
516;DHT22;244;48.508;9.052;2024-02-26T09:54:47;14.00;7.10
516;DHT22;244;48.508;9.052;2024-02-26T09:57:15;14.00;6.40
516;DHT22;244;48.508;9.052;2024-02-26T09:59:43;14.10;6.40
516;DHT22;244;48.508;9.052;2024-02-26T10:02:12;14.20;6.20
516;DHT22;244;48.508;9.052;2024-02-26T10:04:40;14.30;6.50
516;DHT22;244;48.508;9.052;2024-02-26T10:07:10;14.30;6.20
516;DHT22;244;48.508;9.052;2024-02-26T10:09:37;14.40;5.60
516;DHT22;244;48.508;9.052;2024-02-26T10:12:05;14.50;5.40
516;DHT22;244;48.508;9.052;2024-02-26T10:14:33;14.50;4.90
516;DHT22;244;48.508;9.052;2024-02-26T10:17:00;14.50;4.90
516;DHT22;244;48.508;9.052;2024-02-26T10:19:28;14.50;4.40
516;DHT22;244;48.508;9.052;2024-02-26T10:22:00;14.50;4.40
516;DHT22;244;48.508;9.052;2024-02-26T10:24:29;14.50;4.20
516;DHT22;244;48.508;9.052;2024-02-26T10:26:56;14.50;3.60
516;DHT22;244;48.508;9.052;2024-02-26T10:29:25;14.40;3.60
516;DHT22;244;48.508;9.052;2024-02-26T10:31:52;14.40;3.30
516;DHT22;244;48.508;9.052;2024-02-26T10:34:19;14.40;3.10
516;DHT22;244;48.508;9.052;2024-02-26T10:36:46;14.40;2.70
516;DHT22;244;48.508;9.052;2024-02-26T10:39:14;14.40;2.90
516;DHT22;244;48.508;9.052;2024-02-26T10:41:43;14.50;3.20
516;DHT22;244;48.508;9.052;2024-02-26T10:44:11;14.60;3.40
516;DHT22;244;48.508;9.052;2024-02-26T10:46:40;14.70;3.30
516;DHT22;244;48.508;9.052;2024-02-26T10:49:13;14.80;2.80
516;DHT22;244;48.508;9.052;2024-02-26T10:51:44;14.90;2.50
516;DHT22;244;48.508;9.052;2024-02-26T10:54:15;15.00;1.60
516;DHT22;244;48.508;9.052;2024-02-26T10:56:46;15.00;1.60
516;DHT22;244;48.508;9.052;2024-02-26T10:59:15;15.10;1.20
516;DHT22;244;48.508;9.052;2024-02-26T11:01:47;15.20;1.40
516;DHT22;244;48.508;9.052;2024-02-26T11:04:15;15.30;1.40
516;DHT22;244;48.508;9.052;2024-02-26T11:06:43;15.30;1.30
516;DHT22;244;48.508;9.052;2024-02-26T11:09:12;15.30;1.00
516;DHT22;244;48.508;9.052;2024-02-26T11:11:40;15.20;1.00
516;DHT22;244;48.508;9.052;2024-02-26T11:14:09;15.20;1.00
516;DHT22;244;48.508;9.052;2024-02-26T11:16:39;15.10;1.00
516;DHT22;244;48.508;9.052;2024-02-26T11:19:07;15.10;1.00
516;DHT22;244;48.508;9.052;2024-02-26T11:21:35;15.20;1.00
516;DHT22;244;48.508;9.052;2024-02-26T11:24:08;15.30;1.10
516;DHT22;244;48.508;9.052;2024-02-26T11:26:38;15.40;1.00
516;DHT22;244;48.508;9.052;2024-02-26T11:29:09;15.70;1.00
516;DHT22;244;48.508;9.052;2024-02-26T11:31:38;15.80;1.00
516;DHT22;244;48.508;9.052;2024-02-26T11:34:06;15.90;1.00
516;DHT22;244;48.508;9.052;2024-02-26T11:36:34;16.00;1.00
516;DHT22;244;48.508;9.052;2024-02-26T11:39:04;16.00;1.00
516;DHT22;244;48.508;9.052;2024-02-26T11:41:31;16.10;1.00
516;DHT22;244;48.508;9.052;2024-02-26T11:43:59;16.30;1.00
516;DHT22;244;48.508;9.052;2024-02-26T11:46:33;16.30;1.00
516;DHT22;244;48.508;9.052;2024-02-26T11:49:31;16.20;1.00
516;DHT22;244;48.508;9.052;2024-02-26T11:52:00;16.20;1.00
516;DHT22;244;48.508;9.052;2024-02-26T11:54:44;16.30;1.00
516;DHT22;244;48.508;9.052;2024-02-26T11:57:24;16.40;1.00
516;DHT22;244;48.508;9.052;2024-02-26T11:59:52;16.40;1.00
516;DHT22;244;48.508;9.052;2024-02-26T12:02:39;16.50;1.00
516;DHT22;244;48.508;9.052;2024-02-26T12:05:08;16.60;1.00
516;DHT22;244;48.508;9.052;2024-02-26T12:07:36;16.70;1.00
516;DHT22;244;48.508;9.052;2024-02-26T12:10:24;16.70;1.00
516;DHT22;244;48.508;9.052;2024-02-26T12:12:58;16.90;1.00
516;DHT22;244;48.508;9.052;2024-02-26T12:15:39;17.10;1.00
516;DHT22;244;48.508;9.052;2024-02-26T12:18:08;17.20;1.00
516;DHT22;244;48.508;9.052;2024-02-26T12:20:36;17.20;1.00
516;DHT22;244;48.508;9.052;2024-02-26T12:23:04;17.20;1.00
516;DHT22;244;48.508;9.052;2024-02-26T12:25:31;17.10;1.00
516;DHT22;244;48.508;9.052;2024-02-26T12:27:58;17.20;1.00
516;DHT22;244;48.508;9.052;2024-02-26T12:30:26;17.40;1.00
516;DHT22;244;48.508;9.052;2024-02-26T12:32:55;17.50;1.00
516;DHT22;244;48.508;9.052;2024-02-26T12:35:25;17.50;1.00
516;DHT22;244;48.508;9.052;2024-02-26T12:37:52;17.50;1.00
516;DHT22;244;48.508;9.052;2024-02-26T12:40:20;17.50;1.00
516;DHT22;244;48.508;9.052;2024-02-26T12:42:47;17.40;1.00
516;DHT22;244;48.508;9.052;2024-02-26T12:45:15;17.30;1.00
516;DHT22;244;48.508;9.052;2024-02-26T12:47:42;17.30;1.00
516;DHT22;244;48.508;9.052;2024-02-26T12:50:11;17.40;1.00
516;DHT22;244;48.508;9.052;2024-02-26T12:52:43;17.50;1.00
516;DHT22;244;48.508;9.052;2024-02-26T12:55:13;17.50;1.00
516;DHT22;244;48.508;9.052;2024-02-26T12:57:41;17.60;1.00
516;DHT22;244;48.508;9.052;2024-02-26T13:00:12;17.50;1.00
516;DHT22;244;48.508;9.052;2024-02-26T13:02:41;17.50;1.00
516;DHT22;244;48.508;9.052;2024-02-26T13:05:10;17.60;1.00
516;DHT22;244;48.508;9.052;2024-02-26T13:07:42;17.60;1.00
516;DHT22;244;48.508;9.052;2024-02-26T13:10:10;17.60;1.00
516;DHT22;244;48.508;9.052;2024-02-26T13:12:42;17.60;1.00
516;DHT22;244;48.508;9.052;2024-02-26T13:15:14;17.70;1.00
516;DHT22;244;48.508;9.052;2024-02-26T13:17:41;17.70;1.00
516;DHT22;244;48.508;9.052;2024-02-26T13:20:08;17.70;1.00
516;DHT22;244;48.508;9.052;2024-02-26T13:22:36;17.70;1.00
516;DHT22;244;48.508;9.052;2024-02-26T13:25:05;17.60;1.00
516;DHT22;244;48.508;9.052;2024-02-26T13:27:33;17.60;1.00
516;DHT22;244;48.508;9.052;2024-02-26T13:30:04;17.70;1.00
516;DHT22;244;48.508;9.052;2024-02-26T13:32:33;17.70;1.00
516;DHT22;244;48.508;9.052;2024-02-26T13:35:09;17.70;1.00
516;DHT22;244;48.508;9.052;2024-02-26T13:37:36;17.70;1.00
516;DHT22;244;48.508;9.052;2024-02-26T13:40:11;17.80;1.00
516;DHT22;244;48.508;9.052;2024-02-26T13:42:38;17.80;1.00
516;DHT22;244;48.508;9.052;2024-02-26T13:45:06;17.80;1.00
516;DHT22;244;48.508;9.052;2024-02-26T13:47:36;17.90;1.00
516;DHT22;244;48.508;9.052;2024-02-26T13:50:03;17.90;1.00
516;DHT22;244;48.508;9.052;2024-02-26T13:52:31;18.00;1.00
516;DHT22;244;48.508;9.052;2024-02-26T13:54:59;18.00;1.00
516;DHT22;244;48.508;9.052;2024-02-26T13:57:29;17.90;1.00
516;DHT22;244;48.508;9.052;2024-02-26T13:59:56;17.90;1.00
516;DHT22;244;48.508;9.052;2024-02-26T14:02:22;17.80;1.00
516;DHT22;244;48.508;9.052;2024-02-26T14:04:49;17.70;1.00
516;DHT22;244;48.508;9.052;2024-02-26T14:07:16;17.60;1.00
516;DHT22;244;48.508;9.052;2024-02-26T14:09:43;17.60;1.00
516;DHT22;244;48.508;9.052;2024-02-26T14:12:11;17.50;1.00
516;DHT22;244;48.508;9.052;2024-02-26T14:14:39;17.60;1.00
516;DHT22;244;48.508;9.052;2024-02-26T14:17:08;17.70;1.00
516;DHT22;244;48.508;9.052;2024-02-26T14:19:35;17.70;1.00
516;DHT22;244;48.508;9.052;2024-02-26T14:22:03;17.80;1.00
516;DHT22;244;48.508;9.052;2024-02-26T14:24:30;17.70;1.00
516;DHT22;244;48.508;9.052;2024-02-26T14:26:58;17.60;1.00
516;DHT22;244;48.508;9.052;2024-02-26T14:29:25;17.40;1.00
516;DHT22;244;48.508;9.052;2024-02-26T14:31:53;17.30;1.00
516;DHT22;244;48.508;9.052;2024-02-26T14:34:22;17.10;1.00
516;DHT22;244;48.508;9.052;2024-02-26T14:36:48;16.90;1.00
516;DHT22;244;48.508;9.052;2024-02-26T14:39:15;16.80;1.00
516;DHT22;244;48.508;9.052;2024-02-26T14:41:42;16.70;1.00
516;DHT22;244;48.508;9.052;2024-02-26T14:44:09;16.70;1.00
516;DHT22;244;48.508;9.052;2024-02-26T14:46:36;16.70;1.00
516;DHT22;244;48.508;9.052;2024-02-26T14:49:04;16.60;1.00
516;DHT22;244;48.508;9.052;2024-02-26T14:51:31;16.60;1.00
516;DHT22;244;48.508;9.052;2024-02-26T14:53:58;16.50;1.00
516;DHT22;244;48.508;9.052;2024-02-26T14:56:27;16.40;1.00
516;DHT22;244;48.508;9.052;2024-02-26T14:58:54;16.40;1.00
516;DHT22;244;48.508;9.052;2024-02-26T15:01:23;16.40;1.00
516;DHT22;244;48.508;9.052;2024-02-26T15:03:50;16.30;1.00
516;DHT22;244;48.508;9.052;2024-02-26T15:06:18;16.30;1.00
516;DHT22;244;48.508;9.052;2024-02-26T15:08:48;16.20;1.00
516;DHT22;244;48.508;9.052;2024-02-26T15:11:15;16.20;1.00
516;DHT22;244;48.508;9.052;2024-02-26T15:13:42;16.10;1.00
516;DHT22;244;48.508;9.052;2024-02-26T15:16:17;16.10;1.00
516;DHT22;244;48.508;9.052;2024-02-26T15:18:43;16.00;1.00
516;DHT22;244;48.508;9.052;2024-02-26T15:21:10;16.00;1.00
516;DHT22;244;48.508;9.052;2024-02-26T15:23:42;15.90;1.00
516;DHT22;244;48.508;9.052;2024-02-26T15:26:09;15.80;1.00
516;DHT22;244;48.508;9.052;2024-02-26T15:28:36;15.80;1.00
516;DHT22;244;48.508;9.052;2024-02-26T15:31:03;15.80;1.00
516;DHT22;244;48.508;9.052;2024-02-26T15:33:30;15.70;1.00
516;DHT22;244;48.508;9.052;2024-02-26T15:35:57;15.70;1.00
516;DHT22;244;48.508;9.052;2024-02-26T15:38:23;15.60;1.00
516;DHT22;244;48.508;9.052;2024-02-26T15:40:54;15.60;1.00
516;DHT22;244;48.508;9.052;2024-02-26T15:43:21;15.50;1.00
516;DHT22;244;48.508;9.052;2024-02-26T15:45:49;15.40;1.00
516;DHT22;244;48.508;9.052;2024-02-26T15:48:16;15.30;1.00
516;DHT22;244;48.508;9.052;2024-02-26T15:50:43;15.30;1.00
516;DHT22;244;48.508;9.052;2024-02-26T15:53:10;15.20;1.00
516;DHT22;244;48.508;9.052;2024-02-26T15:55:37;15.10;1.00
516;DHT22;244;48.508;9.052;2024-02-26T15:58:09;15.10;1.00
516;DHT22;244;48.508;9.052;2024-02-26T16:00:39;15.00;1.00
516;DHT22;244;48.508;9.052;2024-02-26T16:03:07;14.90;1.00
516;DHT22;244;48.508;9.052;2024-02-26T16:05:34;14.80;1.00
516;DHT22;244;48.508;9.052;2024-02-26T16:08:04;14.70;1.00
516;DHT22;244;48.508;9.052;2024-02-26T16:10:32;14.60;1.00
516;DHT22;244;48.508;9.052;2024-02-26T16:13:00;14.60;1.00
516;DHT22;244;48.508;9.052;2024-02-26T16:15:29;14.50;1.00
516;DHT22;244;48.508;9.052;2024-02-26T16:17:57;14.50;1.00
516;DHT22;244;48.508;9.052;2024-02-26T16:20:24;14.40;1.00
516;DHT22;244;48.508;9.052;2024-02-26T16:22:54;14.40;1.00
516;DHT22;244;48.508;9.052;2024-02-26T16:25:21;14.30;1.00
516;DHT22;244;48.508;9.052;2024-02-26T16:27:48;14.30;1.00
516;DHT22;244;48.508;9.052;2024-02-26T16:30:16;14.30;1.00
516;DHT22;244;48.508;9.052;2024-02-26T16:32:45;14.20;1.00
516;DHT22;244;48.508;9.052;2024-02-26T16:35:11;14.20;1.00
516;DHT22;244;48.508;9.052;2024-02-26T16:37:42;14.10;1.00
516;DHT22;244;48.508;9.052;2024-02-26T16:40:09;14.10;1.10
516;DHT22;244;48.508;9.052;2024-02-26T16:42:41;14.00;1.30
516;DHT22;244;48.508;9.052;2024-02-26T16:45:10;13.90;1.60
516;DHT22;244;48.508;9.052;2024-02-26T16:47:38;13.90;2.00
516;DHT22;244;48.508;9.052;2024-02-26T16:50:09;13.80;2.10
516;DHT22;244;48.508;9.052;2024-02-26T16:52:36;13.70;2.20
516;DHT22;244;48.508;9.052;2024-02-26T16:55:04;13.70;2.40